Main page
METAR-TAF:

METAR-TAF

Airports :

Izmir, Turkey

Adnan Menderes Airport

latitude: 38-16N, longitude: 027-09E, elevation: 125 m

Current weather observation

The report was made 22 minutes ago, at 22:50 UTC
Wind 4 kt from the South, varying between Southeast and South
Temperature 0°C
Humidity 86%
Pressure 1018 hPa
Visibility 10 km or more
no clouds below 1500 m and no cumulonimbus

METAR: LTBJ 192250Z 17004KT 130V190 CAVOK 00/M02 Q1018 NOSIG RMK RWY16 16004KT

Time: 02:12 (23:12 UTC)

Forecast

The report was made 6 hours and 32 minutes ago, at 16:40 UTC
Forecast valid from 19 at 18 UTC to 20 at 18 UTC
Wind 2 kt from variable directions
Visibility 10 km or more
no clouds below 1500 m and no cumulonimbus
Becoming
from 20 at 03 UTC to 20 at 06 UTC
Wind 12 kt from the South
Scattered clouds at a height of 3000 ft
Broken clouds at a height of 10000 ft
Becoming
from 20 at 09 UTC to 20 at 12 UTC
light rain showers

TAF: LTBJ 191640Z 1918/2018 VRB02KT CAVOK BECMG 2003/2006 17012KT SCT030 BKN100 BECMG 2009/2012 -SHRA

Weather observations and forecasts of more than 4000 airports (METAR and TAF reports).

The available stations are represented by yellow and red dots on the map.

Hover mouse over dot to see the name of the station.

Then click to see weather observations and forecasts.

To change the map : click on the green buttons with a black cross to zoom in, on the green button with a dash to zoom out, or on the green arrows for adjacent maps.


METAR-TAF: